Time;durP1;ratioP1;P1;durP2;ratioP2;P2;SDS_P1;SDS_P2;PMS_P1;PMS_P2;Temp;Humidity;BMP_temperature;BMP_pressure;BME280_temperature;BME280_humidity;BME280_pressure;Samples;Min_cycle;Max_cycle;Signal;HPM_P1;HPM_P2
2024/01/13 00:00:11;;;;;;;14.32;5.28;;;;;;;;;;5071942;28;20102;-60
2024/01/13 00:02:36;;;;;;;12.60;5.43;;;;;;;;;;5071203;28;20031;-59
2024/01/13 00:05:01;;;;;;;12.33;5.20;;;;;;;;;;5072820;28;20017;-60
2024/01/13 00:07:26;;;;;;;13.27;5.20;;;;;;;;;;5071162;28;20020;-60
2024/01/13 00:09:51;;;;;;;12.60;4.85;;;;;;;;;;5070271;28;20021;-60
2024/01/13 00:12:16;;;;;;;14.83;5.63;;;;;;;;;;5070898;28;20020;-60
2024/01/13 00:14:42;;;;;;;12.77;5.20;;;;;;;;;;5071363;28;20016;-60
2024/01/13 00:17:07;;;;;;;12.68;4.35;;;;;;;;;;5071225;28;20025;-57
2024/01/13 00:19:32;;;;;;;13.03;4.83;;;;;;;;;;5064112;28;20050;-60
2024/01/13 00:21:57;;;;;;;10.90;4.68;;;;;;;;;;5070478;28;20508;-60
2024/01/13 00:24:22;;;;;;;12.68;4.88;;;;;;;;;;5070863;28;20028;-60
2024/01/13 00:26:47;;;;;;;13.40;5.72;;;;;;;;;;5070951;28;20036;-60
2024/01/13 00:29:13;;;;;;;13.23;5.17;;;;;;;;;;5063620;28;20033;-60
2024/01/13 00:31:38;;;;;;;11.57;4.87;;;;;;;;;;5070660;28;20465;-59
2024/01/13 00:34:03;;;;;;;12.63;5.03;;;;;;;;;;5070548;28;20988;-59
2024/01/13 00:36:28;;;;;;;12.27;4.97;;;;;;;;;;5070576;28;20111;-59
2024/01/13 00:38:53;;;;;;;12.33;4.90;;;;;;;;;;5069802;28;20036;-60
2024/01/13 00:41:18;;;;;;;13.27;4.88;;;;;;;;;;5070583;28;20046;-59
2024/01/13 00:43:44;;;;;;;13.63;5.70;;;;;;;;;;5070505;28;20020;-60
2024/01/13 00:46:09;;;;;;;12.47;5.10;;;;;;;;;;5070573;28;20455;-58
2024/01/13 00:48:35;;;;;;;12.60;4.97;;;;;;;;;;5068555;28;20027;-59
2024/01/13 00:51:01;;;;;;;12.75;5.00;;;;;;;;;;5070182;28;20100;-58
2024/01/13 00:53:26;;;;;;;13.70;5.20;;;;;;;;;;5070375;28;20436;-60
2024/01/13 00:55:51;;;;;;;12.23;4.25;;;;;;;;;;5070715;28;20481;-57
2024/01/13 00:58:16;;;;;;;12.48;5.03;;;;;;;;;;5069462;28;20021;-60
2024/01/13 01:00:41;;;;;;;10.90;4.70;;;;;;;;;;5069021;28;20020;-59
2024/01/13 01:03:07;;;;;;;13.13;4.88;;;;;;;;;;5070220;28;20495;-58
2024/01/13 01:05:32;;;;;;;10.90;3.78;;;;;;;;;;5069993;28;20021;-60
2024/01/13 01:07:57;;;;;;;10.93;4.78;;;;;;;;;;5069417;28;20048;-60
2024/01/13 01:10:22;;;;;;;12.98;4.40;;;;;;;;;;5070455;28;20017;-58
2024/01/13 01:12:47;;;;;;;11.07;4.57;;;;;;;;;;5069788;28;20042;-61
2024/01/13 01:15:13;;;;;;;12.65;4.53;;;;;;;;;;5070438;28;20024;-58
2024/01/13 01:17:38;;;;;;;9.77;4.17;;;;;;;;;;5070542;28;20016;-59
2024/01/13 01:20:04;;;;;;;11.32;4.68;;;;;;;;;;5066666;28;20448;-60
2024/01/13 01:22:29;;;;;;;11.50;4.55;;;;;;;;;;5070249;28;20360;-59
2024/01/13 01:24:54;;;;;;;11.37;4.63;;;;;;;;;;5070774;28;20123;-59
2024/01/13 01:27:20;;;;;;;11.05;4.05;;;;;;;;;;5073233;28;20052;-59
2024/01/13 01:29:45;;;;;;;9.27;3.78;;;;;;;;;;5075071;28;20042;-58
2024/01/13 01:32:10;;;;;;;10.40;4.25;;;;;;;;;;5079812;28;20032;-59
2024/01/13 01:34:35;;;;;;;8.55;3.78;;;;;;;;;;5072810;28;20025;-59
2024/01/13 01:37:01;;;;;;;9.65;3.55;;;;;;;;;;5071829;28;20012;-60
2024/01/13 01:39:26;;;;;;;12.30;4.53;;;;;;;;;;5068773;28;20059;-60
2024/01/13 01:41:51;;;;;;;9.77;3.77;;;;;;;;;;5070130;28;20013;-59
2024/01/13 01:44:17;;;;;;;9.63;3.77;;;;;;;;;;5069827;28;20108;-59
2024/01/13 01:46:43;;;;;;;10.00;4.18;;;;;;;;;;5069982;28;20035;-60
2024/01/13 01:49:10;;;;;;;9.32;4.07;;;;;;;;;;5068890;28;20024;-60
2024/01/13 01:51:36;;;;;;;;;;;;;;;;;;5070261;28;20476;-60
2024/01/13 01:54:01;;;;;;;10.00;4.18;;;;;;;;;;5070037;28;20253;-60
2024/01/13 01:56:28;;;;;;;9.48;3.97;;;;;;;;;;5070233;28;20060;-60
2024/01/13 01:58:53;;;;;;;11.55;4.20;;;;;;;;;;5068827;28;20025;-60
2024/01/13 02:01:19;;;;;;;9.85;4.00;;;;;;;;;;5069816;28;20016;-60
2024/01/13 02:03:45;;;;;;;11.30;4.13;;;;;;;;;;5070456;28;20024;-60
2024/01/13 02:06:10;;;;;;;9.65;3.97;;;;;;;;;;5071517;28;20028;-59
2024/01/13 02:08:39;;;;;;;9.68;4.15;;;;;;;;;;5065776;28;20090;-59
2024/01/13 02:11:04;;;;;;;12.50;4.65;;;;;;;;;;5069030;28;20017;-60
2024/01/13 02:13:29;;;;;;;10.93;4.85;;;;;;;;;;5070163;28;20073;-59
2024/01/13 02:15:55;;;;;;;10.07;4.70;;;;;;;;;;5071212;28;20369;-60
2024/01/13 02:18:20;;;;;;;10.50;4.30;;;;;;;;;;5072718;28;20113;-60
2024/01/13 02:20:45;;;;;;;9.25;4.22;;;;;;;;;;5073198;28;20023;-60
2024/01/13 02:23:10;;;;;;;9.80;4.60;;;;;;;;;;5073720;28;20024;-60
2024/01/13 02:25:35;;;;;;;11.27;4.30;;;;;;;;;;5073760;28;20036;-60
2024/01/13 02:28:00;;;;;;;9.87;4.37;;;;;;;;;;5073484;28;20017;-57
2024/01/13 02:30:25;;;;;;;10.23;4.38;;;;;;;;;;5072105;28;20040;-59
2024/01/13 02:32:51;;;;;;;9.23;3.97;;;;;;;;;;5072828;28;20021;-59
2024/01/13 02:35:16;;;;;;;10.82;4.10;;;;;;;;;;5073324;28;20038;-59
2024/01/13 02:37:41;;;;;;;10.07;4.50;;;;;;;;;;5065694;28;20025;-57
2024/01/13 02:40:09;;;;;;;11.23;4.23;;;;;;;;;;5064303;28;20017;-58
2024/01/13 02:42:34;;;;;;;10.77;4.38;;;;;;;;;;5072708;28;20100;-60
2024/01/13 02:44:59;;;;;;;9.67;4.13;;;;;;;;;;5071912;28;20107;-59
2024/01/13 02:47:28;;;;;;;9.02;3.85;;;;;;;;;;5072816;28;20013;-59
2024/01/13 02:49:53;;;;;;;9.77;4.20;;;;;;;;;;5073156;28;20031;-58
2024/01/13 02:52:18;;;;;;;9.40;3.85;;;;;;;;;;5072485;28;20024;-59
2024/01/13 02:54:43;;;;;;;10.02;3.83;;;;;;;;;;5071736;28;20025;-60
2024/01/13 02:57:09;;;;;;;10.10;4.03;;;;;;;;;;5068035;28;20062;-60
2024/01/13 02:59:34;;;;;;;10.05;4.28;;;;;;;;;;5072707;28;20537;-59
2024/01/13 03:01:59;;;;;;;10.30;4.27;;;;;;;;;;5072516;28;20127;-60
2024/01/13 03:04:24;;;;;;;10.07;4.50;;;;;;;;;;5065976;28;20029;-59
2024/01/13 03:06:49;;;;;;;10.02;4.20;;;;;;;;;;5061803;28;20037;-58
2024/01/13 03:09:15;;;;;;;11.52;4.20;;;;;;;;;;5062763;28;20491;-59
2024/01/13 03:11:40;;;;;;;8.93;3.80;;;;;;;;;;5070648;28;20013;-59
2024/01/13 03:14:05;;;;;;;10.27;4.35;;;;;;;;;;5052724;28;20389;-58
2024/01/13 03:16:30;;;;;;;10.65;4.20;;;;;;;;;;5052258;28;20140;-59
2024/01/13 03:18:55;;;;;;;10.27;4.53;;;;;;;;;;5063985;28;20024;-58
2024/01/13 03:21:21;;;;;;;10.13;4.05;;;;;;;;;;5068144;28;20528;-59
2024/01/13 03:23:46;;;;;;;9.60;4.20;;;;;;;;;;5071811;28;20024;-59
2024/01/13 03:26:12;;;;;;;10.20;4.22;;;;;;;;;;5071992;28;20032;-60
2024/01/13 03:28:37;;;;;;;8.48;3.85;;;;;;;;;;5070591;28;20519;-59
2024/01/13 03:31:02;;;;;;;8.77;4.10;;;;;;;;;;5063288;28;20060;-58
2024/01/13 03:33:29;;;;;;;8.67;3.43;;;;;;;;;;5051775;28;20439;-58
2024/01/13 03:35:54;;;;;;;8.68;3.28;;;;;;;;;;5052010;28;20021;-60
2024/01/13 03:38:19;;;;;;;9.65;3.97;;;;;;;;;;5063674;28;20474;-59
2024/01/13 03:40:44;;;;;;;7.70;3.53;;;;;;;;;;5071428;28;20021;-61
2024/01/13 03:43:09;;;;;;;8.05;3.28;;;;;;;;;;5071324;28;20029;-59
2024/01/13 03:45:35;;;;;;;7.00;3.30;;;;;;;;;;5071429;28;20552;-57
2024/01/13 03:48:00;;;;;;;9.20;3.65;;;;;;;;;;5068834;28;20013;-60
2024/01/13 03:50:25;;;;;;;7.65;3.40;;;;;;;;;;5071142;28;20033;-58
2024/01/13 03:52:50;;;;;;;8.15;3.20;;;;;;;;;;5071158;28;20488;-60
2024/01/13 03:55:15;;;;;;;7.32;3.33;;;;;;;;;;5071628;28;20020;-60
2024/01/13 03:57:41;;;;;;;9.20;3.83;;;;;;;;;;5070594;28;20055;-60
2024/01/13 04:00:06;;;;;;;8.02;3.40;;;;;;;;;;5071202;28;20020;-59
2024/01/13 04:02:31;;;;;;;7.25;3.25;;;;;;;;;;5070755;28;20020;-59
2024/01/13 04:04:56;;;;;;;7.40;3.10;;;;;;;;;;5071653;28;20032;-59
2024/01/13 04:07:21;;;;;;;7.67;3.20;;;;;;;;;;5072318;28;20024;-59
2024/01/13 04:09:47;;;;;;;7.75;3.47;;;;;;;;;;5069981;28;20396;-59
2024/01/13 04:12:12;;;;;;;8.43;3.43;;;;;;;;;;5068530;28;20070;-59
2024/01/13 04:14:37;;;;;;;7.47;2.80;;;;;;;;;;5070626;28;20448;-59
2024/01/13 04:17:02;;;;;;;7.03;2.47;;;;;;;;;;5070948;28;20024;-60
2024/01/13 04:19:27;;;;;;;5.73;2.70;;;;;;;;;;5069981;28;20042;-60
2024/01/13 04:21:52;;;;;;;7.20;3.30;;;;;;;;;;5070561;28;20465;-59
2024/01/13 04:24:18;;;;;;;6.33;2.80;;;;;;;;;;5070804;28;20035;-60
2024/01/13 04:26:43;;;;;;;6.57;2.60;;;;;;;;;;5070931;28;20032;-59
2024/01/13 04:29:09;;;;;;;6.97;2.80;;;;;;;;;;5069651;28;20194;-59
2024/01/13 04:31:34;;;;;;;7.38;2.70;;;;;;;;;;5070125;28;20469;-59
2024/01/13 04:33:59;;;;;;;6.88;2.65;;;;;;;;;;5069093;28;20016;-60
2024/01/13 04:36:24;;;;;;;8.00;2.80;;;;;;;;;;5071634;28;20028;-59
2024/01/13 04:38:50;;;;;;;6.63;2.70;;;;;;;;;;5072003;28;20472;-58
2024/01/13 04:41:15;;;;;;;6.40;2.60;;;;;;;;;;5076381;28;20017;-59
2024/01/13 04:43:40;;;;;;;7.00;2.23;;;;;;;;;;5075559;28;20024;-59
2024/01/13 04:46:06;;;;;;;5.73;2.40;;;;;;;;;;5073235;28;20485;-59
2024/01/13 04:48:31;;;;;;;6.63;2.55;;;;;;;;;;5069136;28;20035;-59
2024/01/13 04:50:56;;;;;;;5.63;2.50;;;;;;;;;;5069953;28;20017;-60
2024/01/13 04:53:22;;;;;;;5.40;2.35;;;;;;;;;;5070601;28;20020;-60
2024/01/13 04:55:47;;;;;;;6.60;2.67;;;;;;;;;;5070577;28;20025;-60
2024/01/13 04:58:12;;;;;;;6.33;2.27;;;;;;;;;;5069467;28;20472;-59
2024/01/13 05:00:37;;;;;;;5.85;2.60;;;;;;;;;;5070350;28;20403;-60
2024/01/13 05:03:03;;;;;;;6.53;2.72;;;;;;;;;;5054101;28;20028;-59
2024/01/13 05:05:28;;;;;;;5.82;2.30;;;;;;;;;;5070422;28;20046;-60
2024/01/13 05:07:53;;;;;;;5.68;2.33;;;;;;;;;;5067970;28;20017;-61
2024/01/13 05:10:19;;;;;;;6.28;2.10;;;;;;;;;;5065115;28;20021;-60
2024/01/13 05:12:44;;;;;;;6.60;2.35;;;;;;;;;;5065243;28;20020;-59
2024/01/13 05:15:09;;;;;;;5.97;2.22;;;;;;;;;;5070532;28;20049;-58
2024/01/13 05:17:34;;;;;;;6.80;2.30;;;;;;;;;;5070262;28;20025;-60
2024/01/13 05:19:59;;;;;;;7.15;2.70;;;;;;;;;;5060522;28;20021;-60
2024/01/13 05:22:24;;;;;;;6.25;2.70;;;;;;;;;;5069740;28;20056;-58
2024/01/13 05:24:50;;;;;;;6.13;2.43;;;;;;;;;;5070366;28;20473;-60
2024/01/13 05:27:15;;;;;;;5.47;2.23;;;;;;;;;;5070699;28;20469;-60
2024/01/13 05:29:40;;;;;;;6.20;2.40;;;;;;;;;;5061840;28;20040;-59
2024/01/13 05:32:05;;;;;;;5.33;2.20;;;;;;;;;;5070112;28;20029;-59
2024/01/13 05:34:30;;;;;;;5.70;2.23;;;;;;;;;;5070067;28;20092;-59
2024/01/13 05:36:55;;;;;;;5.97;2.47;;;;;;;;;;5070585;28;20016;-59
2024/01/13 05:39:20;;;;;;;6.77;2.50;;;;;;;;;;5063454;28;20351;-59
2024/01/13 05:41:46;;;;;;;6.18;2.13;;;;;;;;;;5070025;28;20024;-59
2024/01/13 05:44:11;;;;;;;5.93;2.10;;;;;;;;;;5069743;28;20598;-60
2024/01/13 05:46:36;;;;;;;4.68;1.80;;;;;;;;;;5068952;28;20028;-58
2024/01/13 05:49:02;;;;;;;5.17;2.27;;;;;;;;;;5069881;28;20055;-60
2024/01/13 05:51:28;;;;;;;5.10;2.07;;;;;;;;;;5071850;28;20026;-59
2024/01/13 05:53:53;;;;;;;5.57;2.15;;;;;;;;;;5073475;28;20380;-60
2024/01/13 05:56:18;;;;;;;5.73;2.03;;;;;;;;;;5072960;28;20021;-60
2024/01/13 05:58:43;;;;;;;4.85;1.90;;;;;;;;;;5063693;28;20012;-59
2024/01/13 06:01:09;;;;;;;5.57;2.40;;;;;;;;;;5068220;28;20483;-60
2024/01/13 06:03:34;;;;;;;4.47;1.73;;;;;;;;;;5073754;28;20074;-59
2024/01/13 06:05:59;;;;;;;7.68;2.75;;;;;;;;;;5056591;28;20439;-59
2024/01/13 06:08:24;;;;;;;4.60;1.65;;;;;;;;;;5063090;28;20028;-60
2024/01/13 06:10:50;;;;;;;7.17;2.13;;;;;;;;;;5073431;28;20108;-59
2024/01/13 06:13:15;;;;;;;5.15;2.08;;;;;;;;;;5063570;28;20029;-59
2024/01/13 06:15:40;;;;;;;5.22;1.80;;;;;;;;;;5059923;28;20012;-59
2024/01/13 06:18:05;;;;;;;5.37;2.17;;;;;;;;;;5065794;28;20028;-59
2024/01/13 06:20:31;;;;;;;5.83;2.20;;;;;;;;;;5066754;28;21788;-60
2024/01/13 06:22:56;;;;;;;5.32;2.28;;;;;;;;;;5071205;28;20439;-59
2024/01/13 06:25:21;;;;;;;5.90;2.53;;;;;;;;;;5070613;28;20456;-58
2024/01/13 06:27:46;;;;;;;6.10;2.42;;;;;;;;;;5073238;28;20048;-59
2024/01/13 06:30:12;;;;;;;5.43;2.10;;;;;;;;;;5072806;28;20013;-58
2024/01/13 06:32:37;;;;;;;5.15;2.03;;;;;;;;;;5072316;28;20036;-60
2024/01/13 06:35:03;;;;;;;6.37;2.53;;;;;;;;;;5071470;28;20396;-59
2024/01/13 06:37:28;;;;;;;6.32;2.53;;;;;;;;;;5065247;28;20075;-59
2024/01/13 06:39:53;;;;;;;5.35;2.22;;;;;;;;;;5066725;28;20025;-58
2024/01/13 06:42:18;;;;;;;6.03;2.58;;;;;;;;;;5063127;28;20392;-59
2024/01/13 06:44:43;;;;;;;6.07;2.40;;;;;;;;;;5070839;28;20151;-58
2024/01/13 06:47:09;;;;;;;6.47;2.40;;;;;;;;;;5068130;28;20029;-58
2024/01/13 06:49:34;;;;;;;5.70;2.10;;;;;;;;;;5050784;28;20029;-59
2024/01/13 06:51:59;;;;;;;5.70;2.25;;;;;;;;;;5054232;28;20020;-57
2024/01/13 06:54:24;;;;;;;6.00;2.40;;;;;;;;;;5064216;28;20383;-56
2024/01/13 06:56:49;;;;;;;6.97;2.60;;;;;;;;;;5071772;28;20492;-59
2024/01/13 06:59:14;;;;;;;5.63;2.15;;;;;;;;;;5065321;28;20082;-59
2024/01/13 07:01:39;;;;;;;5.57;2.10;;;;;;;;;;5065034;28;20021;-60
2024/01/13 07:04:05;;;;;;;6.38;2.45;;;;;;;;;;5061937;28;20028;-59
2024/01/13 07:06:30;;;;;;;5.13;2.30;;;;;;;;;;5059086;28;20033;-59
2024/01/13 07:08:56;;;;;;;5.43;2.40;;;;;;;;;;5067459;28;20037;-59
2024/01/13 07:11:21;;;;;;;5.95;2.08;;;;;;;;;;5071783;28;20495;-58
2024/01/13 07:13:46;;;;;;;5.27;2.10;;;;;;;;;;5072220;28;20029;-58
2024/01/13 07:16:11;;;;;;;5.43;2.30;;;;;;;;;;5063418;28;20017;-57
2024/01/13 07:18:37;;;;;;;5.28;1.95;;;;;;;;;;5059615;28;20114;-58
2024/01/13 07:21:02;;;;;;;6.57;2.55;;;;;;;;;;5055888;28;20057;-58
2024/01/13 07:23:29;;;;;;;5.65;2.20;;;;;;;;;;5061284;28;20013;-58
2024/01/13 07:25:54;;;;;;;4.80;1.88;;;;;;;;;;5061100;28;20055;-58
2024/01/13 07:28:19;;;;;;;6.80;2.50;;;;;;;;;;5063204;28;20017;-58
2024/01/13 07:30:44;;;;;;;5.78;2.60;;;;;;;;;;5061681;28;20100;-58
2024/01/13 07:33:09;;;;;;;6.53;2.47;;;;;;;;;;5061017;28;20021;-57
2024/01/13 07:35:35;;;;;;;6.10;2.53;;;;;;;;;;5059325;28;20469;-59
2024/01/13 07:38:01;;;;;;;6.60;2.58;;;;;;;;;;5060420;28;20020;-58
2024/01/13 07:40:26;;;;;;;5.63;2.55;;;;;;;;;;5061291;28;20028;-59
2024/01/13 07:42:51;;;;;;;6.68;2.70;;;;;;;;;;5064570;28;20542;-58
2024/01/13 07:45:17;;;;;;;6.70;2.50;;;;;;;;;;5058523;28;20028;-58
2024/01/13 07:47:43;;;;;;;7.50;2.83;;;;;;;;;;5072384;28;20031;-58
2024/01/13 07:50:08;;;;;;;6.13;2.33;;;;;;;;;;5059524;28;20051;-59
2024/01/13 07:52:33;;;;;;;6.27;2.33;;;;;;;;;;5063896;28;20032;-58
2024/01/13 07:54:58;;;;;;;6.18;2.33;;;;;;;;;;5065540;28;20021;-58
2024/01/13 07:57:26;;;;;;;6.28;2.72;;;;;;;;;;5072150;28;20051;-59
2024/01/13 07:59:51;;;;;;;6.90;2.95;;;;;;;;;;5060542;28;20033;-58
2024/01/13 08:02:17;;;;;;;5.88;2.58;;;;;;;;;;5069824;28;20490;-58
2024/01/13 08:04:43;;;;;;;6.10;2.65;;;;;;;;;;5071108;28;20041;-59
2024/01/13 08:07:08;;;;;;;6.75;2.53;;;;;;;;;;5064749;28;20103;-59
2024/01/13 08:09:33;;;;;;;6.80;2.60;;;;;;;;;;5065273;28;20082;-58
2024/01/13 08:11:58;;;;;;;6.50;2.40;;;;;;;;;;5067097;28;20025;-58
2024/01/13 08:14:24;;;;;;;6.35;3.08;;;;;;;;;;5060490;28;20392;-57
2024/01/13 08:16:49;;;;;;;6.85;2.70;;;;;;;;;;5067837;28;20095;-58
2024/01/13 08:19:14;;;;;;;8.63;2.80;;;;;;;;;;5062769;28;20021;-58
2024/01/13 08:21:39;;;;;;;6.90;2.47;;;;;;;;;;5065550;28;20035;-59
2024/01/13 08:24:05;;;;;;;6.43;2.50;;;;;;;;;;5051795;28;20020;-58
2024/01/13 08:26:30;;;;;;;6.80;2.60;;;;;;;;;;5060762;28;20047;-58
2024/01/13 08:28:56;;;;;;;6.72;2.80;;;;;;;;;;5051424;28;20028;-58
2024/01/13 08:31:21;;;;;;;5.83;2.57;;;;;;;;;;5061450;28;20032;-59
2024/01/13 08:33:46;;;;;;;6.32;2.50;;;;;;;;;;5067010;28;20062;-59
2024/01/13 08:36:11;;;;;;;5.80;2.20;;;;;;;;;;5069185;28;20027;-58
2024/01/13 08:38:36;;;;;;;6.23;2.57;;;;;;;;;;5070804;28;20050;-59
2024/01/13 08:41:02;;;;;;;6.72;2.58;;;;;;;;;;5067029;28;20506;-59
2024/01/13 08:43:27;;;;;;;6.77;2.77;;;;;;;;;;5070535;28;20044;-59
2024/01/13 08:45:52;;;;;;;6.20;2.67;;;;;;;;;;5070710;28;20545;-60
2024/01/13 08:48:17;;;;;;;6.73;2.77;;;;;;;;;;5071273;28;20020;-59
2024/01/13 08:50:42;;;;;;;6.57;2.90;;;;;;;;;;5065953;28;20012;-58
2024/01/13 08:53:08;;;;;;;6.47;2.40;;;;;;;;;;5062123;28;20028;-59
2024/01/13 08:55:33;;;;;;;5.80;2.43;;;;;;;;;;5051829;28;20043;-61
2024/01/13 08:57:58;;;;;;;6.63;3.00;;;;;;;;;;5055263;28;20051;-59
2024/01/13 09:00:23;;;;;;;7.25;3.03;;;;;;;;;;5069090;28;20020;-58
2024/01/13 09:02:48;;;;;;;7.28;2.85;;;;;;;;;;5062717;28;20029;-58
2024/01/13 09:05:13;;;;;;;7.47;2.97;;;;;;;;;;5050067;28;20091;-59
2024/01/13 09:07:38;;;;;;;7.43;3.00;;;;;;;;;;5050169;28;20025;-61
2024/01/13 09:10:04;;;;;;;7.37;2.90;;;;;;;;;;5059036;28;20048;-58
2024/01/13 09:12:29;;;;;;;6.43;2.70;;;;;;;;;;5069497;28;20012;-58
2024/01/13 09:14:55;;;;;;;6.88;2.72;;;;;;;;;;5066968;28;20024;-60
2024/01/13 09:17:20;;;;;;;6.88;3.03;;;;;;;;;;5050935;28;20385;-59
2024/01/13 09:19:45;;;;;;;6.87;2.80;;;;;;;;;;5057989;28;20062;-59
2024/01/13 09:22:10;;;;;;;6.43;2.70;;;;;;;;;;5065658;28;20108;-59
2024/01/13 09:24:36;;;;;;;6.27;2.67;;;;;;;;;;5073180;28;20074;-62
2024/01/13 09:27:01;;;;;;;6.30;2.60;;;;;;;;;;5070792;28;20028;-59
2024/01/13 09:29:27;;;;;;;6.00;2.40;;;;;;;;;;5070339;28;20488;-60
2024/01/13 09:31:52;;;;;;;6.07;2.38;;;;;;;;;;5068801;28;20029;-58
2024/01/13 09:34:17;;;;;;;6.03;2.57;;;;;;;;;;5069748;28;20423;-60
2024/01/13 09:36:44;;;;;;;6.38;2.80;;;;;;;;;;5070073;28;20447;-58
2024/01/13 09:39:11;;;;;;;7.30;2.97;;;;;;;;;;5070031;28;20021;-57
2024/01/13 09:41:36;;;;;;;7.35;2.60;;;;;;;;;;5069808;28;20027;-57
2024/01/13 09:44:03;;;;;;;6.07;2.28;;;;;;;;;;5067644;28;20092;-59
2024/01/13 09:46:28;;;;;;;6.68;2.95;;;;;;;;;;5062765;28;20402;-60
2024/01/13 09:48:54;;;;;;;6.15;2.42;;;;;;;;;;5069614;28;20021;-58
2024/01/13 09:51:19;;;;;;;6.57;2.28;;;;;;;;;;5069774;28;20094;-60
2024/01/13 09:53:48;;;;;;;5.30;2.27;;;;;;;;;;5068228;28;20476;-61
2024/01/13 09:56:17;;;;;;;5.07;2.10;;;;;;;;;;5069046;28;20043;-60
2024/01/13 09:58:43;;;;;;;5.95;2.30;;;;;;;;;;5069846;28;20027;-59
2024/01/13 10:01:08;;;;;;;6.00;2.40;;;;;;;;;;5069696;28;20065;-60
2024/01/13 10:03:33;;;;;;;7.27;2.90;;;;;;;;;;5069575;28;20028;-60
2024/01/13 10:05:59;;;;;;;7.20;2.50;;;;;;;;;;5071275;28;20040;-59
2024/01/13 10:08:33;;;;;;;6.72;2.90;;;;;;;;;;5058914;28;20036;-58
2024/01/13 10:10:59;;;;;;;7.35;3.20;;;;;;;;;;5066274;28;20116;-59
2024/01/13 10:13:25;;;;;;;6.28;2.97;;;;;;;;;;5072987;28;20614;-58
2024/01/13 10:15:50;;;;;;;9.65;3.60;;;;;;;;;;5069754;28;20495;-59
2024/01/13 10:18:15;;;;;;;9.82;4.63;;;;;;;;;;5051547;28;20020;-58
2024/01/13 10:20:41;;;;;;;8.05;3.78;;;;;;;;;;5048667;28;20381;-58
2024/01/13 10:23:06;;;;;;;8.35;4.35;;;;;;;;;;5068796;28;20109;-59
2024/01/13 10:25:31;;;;;;;7.63;3.42;;;;;;;;;;5067166;28;20037;-58
2024/01/13 10:27:56;;;;;;;8.13;3.58;;;;;;;;;;5055159;28;20033;-59
2024/01/13 10:30:21;;;;;;;7.93;3.80;;;;;;;;;;5056406;28;20458;-59
2024/01/13 10:32:46;;;;;;;7.60;3.70;;;;;;;;;;5078031;28;20070;-57
2024/01/13 10:35:17;;;;;;;6.85;3.40;;;;;;;;;;5064363;28;20013;-58
2024/01/13 10:37:42;;;;;;;6.78;3.03;;;;;;;;;;5051567;28;20044;-58
2024/01/13 10:40:08;;;;;;;6.97;3.23;;;;;;;;;;5059408;28;20425;-58
2024/01/13 10:42:37;;;;;;;8.80;3.47;;;;;;;;;;5073169;28;20113;-58
2024/01/13 10:45:06;;;;;;;7.38;3.03;;;;;;;;;;5072390;28;20024;-57
2024/01/13 10:47:33;;;;;;;6.85;3.17;;;;;;;;;;5075216;28;20025;-59
2024/01/13 10:49:58;;;;;;;7.18;3.03;;;;;;;;;;5079225;28;20021;-59
2024/01/13 10:52:26;;;;;;;6.90;3.43;;;;;;;;;;5069351;28;20017;-58
2024/01/13 10:54:52;;;;;;;7.85;3.45;;;;;;;;;;5084052;28;20100;-60
2024/01/13 10:57:18;;;;;;;8.10;3.22;;;;;;;;;;5053620;28;20056;-61
2024/01/13 10:59:43;;;;;;;6.43;3.03;;;;;;;;;;5066128;28;20044;-60
2024/01/13 11:02:10;;;;;;;9.68;4.07;;;;;;;;;;5072230;28;20040;-60
2024/01/13 11:04:35;;;;;;;7.57;3.42;;;;;;;;;;5072388;28;20484;-59
2024/01/13 11:07:00;;;;;;;7.30;3.30;;;;;;;;;;5072444;28;20051;-60
2024/01/13 11:09:26;;;;;;;8.70;3.37;;;;;;;;;;5064392;28;20118;-60
2024/01/13 11:12:11;;;;;;;6.95;3.15;;;;;;;;;;5068514;28;20545;-59
2024/01/13 11:14:40;;;;;;;6.78;3.05;;;;;;;;;;5069171;28;20123;-59
2024/01/13 11:17:06;;;;;;;6.85;3.08;;;;;;;;;;5072386;28;20480;-60
2024/01/13 11:19:35;;;;;;;6.47;2.85;;;;;;;;;;5072499;28;20103;-60
2024/01/13 11:22:00;;;;;;;7.15;3.35;;;;;;;;;;5065123;28;20025;-59
2024/01/13 11:24:25;;;;;;;8.48;2.90;;;;;;;;;;5051344;28;20033;-60
2024/01/13 11:26:53;;;;;;;7.43;3.17;;;;;;;;;;5066011;28;20036;-60
2024/01/13 11:29:25;;;;;;;8.23;2.95;;;;;;;;;;5065155;28;20099;-58
2024/01/13 11:31:54;;;;;;;8.07;3.38;;;;;;;;;;5072359;28;20027;-58
2024/01/13 11:34:19;;;;;;;6.63;3.05;;;;;;;;;;5072097;28;20464;-60
2024/01/13 11:36:47;;;;;;;8.05;3.22;;;;;;;;;;5073309;28;20067;-58
2024/01/13 11:39:12;;;;;;;7.43;3.10;;;;;;;;;;5067345;28;20048;-58
2024/01/13 11:41:56;;;;;;;6.10;2.80;;;;;;;;;;5065200;28;20071;-59
2024/01/13 11:44:23;;;;;;;6.35;2.90;;;;;;;;;;5059840;28;20413;-60
2024/01/13 11:47:01;;;;;;;6.88;2.63;;;;;;;;;;5070510;28;20028;-58
2024/01/13 11:49:33;;;;;;;6.25;2.90;;;;;;;;;;5053120;28;20313;-58
2024/01/13 11:52:01;;;;;;;8.05;3.08;;;;;;;;;;5070017;28;20070;-58
2024/01/13 11:54:27;;;;;;;7.95;3.83;;;;;;;;;;5058166;28;20110;-60
2024/01/13 11:56:52;;;;;;;7.75;3.67;;;;;;;;;;5065119;28;20039;-59
2024/01/13 11:59:18;;;;;;;8.68;3.28;;;;;;;;;;5071380;28;20016;-60
2024/01/13 12:01:43;;;;;;;8.57;3.42;;;;;;;;;;5062935;28;20021;-60
2024/01/13 12:04:09;;;;;;;8.13;3.30;;;;;;;;;;5072188;28;20020;-58
2024/01/13 12:06:34;;;;;;;7.28;3.35;;;;;;;;;;5071633;28;20024;-60
2024/01/13 12:08:59;;;;;;;7.72;3.17;;;;;;;;;;5079150;28;20025;-60
2024/01/13 12:11:24;;;;;;;7.50;3.20;;;;;;;;;;5059300;28;20430;-58
2024/01/13 12:13:49;;;;;;;7.67;3.40;;;;;;;;;;5073504;28;20028;-58
2024/01/13 12:16:15;;;;;;;7.72;3.50;;;;;;;;;;5071655;28;20016;-58
2024/01/13 12:18:45;;;;;;;6.82;3.03;;;;;;;;;;5066336;28;20028;-58
2024/01/13 12:21:10;;;;;;;7.90;3.25;;;;;;;;;;5070893;28;20027;-59
2024/01/13 12:23:36;;;;;;;8.17;3.27;;;;;;;;;;5067079;28;20021;-60
2024/01/13 12:26:01;;;;;;;7.72;3.13;;;;;;;;;;5066373;28;20537;-59
2024/01/13 12:28:27;;;;;;;8.98;3.22;;;;;;;;;;5068440;28;20580;-59
2024/01/13 12:30:53;;;;;;;6.93;3.25;;;;;;;;;;5069146;28;20064;-59
2024/01/13 12:33:18;;;;;;;8.48;3.70;;;;;;;;;;5062592;28;20020;-59
2024/01/13 12:35:43;;;;;;;9.02;3.78;;;;;;;;;;5060158;28;20040;-59
2024/01/13 12:38:09;;;;;;;9.10;3.75;;;;;;;;;;5065023;28;20395;-59
2024/01/13 12:40:35;;;;;;;9.80;4.13;;;;;;;;;;5068810;28;20027;-59
2024/01/13 12:43:00;;;;;;;8.43;3.78;;;;;;;;;;5063325;28;20021;-59
2024/01/13 12:45:28;;;;;;;8.27;3.88;;;;;;;;;;5081677;28;20038;-59
2024/01/13 12:47:54;;;;;;;7.32;3.22;;;;;;;;;;5069195;28;20040;-58
2024/01/13 12:50:22;;;;;;;9.30;3.97;;;;;;;;;;5079669;28;20388;-58
2024/01/13 12:52:48;;;;;;;9.10;3.97;;;;;;;;;;5061266;28;20407;-58
2024/01/13 12:55:13;;;;;;;9.98;4.63;;;;;;;;;;5086899;28;20112;-61
2024/01/13 12:57:38;;;;;;;9.93;3.90;;;;;;;;;;5073807;28;20111;-59
2024/01/13 13:00:07;;;;;;;16.20;5.87;;;;;;;;;;5067888;28;20091;-60
2024/01/13 13:02:36;;;;;;;9.32;3.90;;;;;;;;;;5059097;28;20024;-59
2024/01/13 13:05:02;;;;;;;9.23;4.30;;;;;;;;;;5054997;28;20060;-60
2024/01/13 13:07:28;;;;;;;8.40;3.90;;;;;;;;;;5068526;28;20504;-60
2024/01/13 13:09:55;;;;;;;8.80;3.72;;;;;;;;;;5056980;28;20266;-58
2024/01/13 13:12:21;;;;;;;8.82;3.85;;;;;;;;;;5063036;28;20507;-58
2024/01/13 13:14:47;;;;;;;8.82;3.95;;;;;;;;;;5051345;28;20025;-58
2024/01/13 13:17:12;;;;;;;9.90;4.15;;;;;;;;;;5061109;28;20093;-58
2024/01/13 13:19:37;;;;;;;9.13;4.20;;;;;;;;;;5064229;28;20431;-59
2024/01/13 13:22:03;;;;;;;10.67;3.57;;;;;;;;;;5058055;28;20064;-60
2024/01/13 13:24:28;;;;;;;9.18;4.07;;;;;;;;;;5065917;28;20542;-60
2024/01/13 13:26:55;;;;;;;9.77;4.17;;;;;;;;;;5050636;28;20071;-60
2024/01/13 13:29:20;;;;;;;11.98;4.18;;;;;;;;;;5050285;28;20021;-60
2024/01/13 13:31:46;;;;;;;10.70;4.05;;;;;;;;;;5054232;28;20059;-60
2024/01/13 13:34:11;;;;;;;10.25;4.28;;;;;;;;;;5050038;28;20017;-59
2024/01/13 13:36:36;;;;;;;8.82;3.90;;;;;;;;;;5061411;28;20028;-59
2024/01/13 13:39:01;;;;;;;9.30;4.20;;;;;;;;;;5070143;28;20459;-60
2024/01/13 13:41:27;;;;;;;9.83;4.30;;;;;;;;;;5070142;28;20036;-59
2024/01/13 13:43:52;;;;;;;10.13;4.30;;;;;;;;;;5070080;28;20020;-59
2024/01/13 13:46:17;;;;;;;10.85;4.72;;;;;;;;;;5060878;28;20021;-57
2024/01/13 13:48:42;;;;;;;9.75;3.70;;;;;;;;;;5058444;28;20029;-57
2024/01/13 13:51:08;;;;;;;8.77;4.00;;;;;;;;;;5059617;28;20012;-59
2024/01/13 13:53:33;;;;;;;11.55;4.38;;;;;;;;;;5062751;28;20033;-60
2024/01/13 13:55:59;;;;;;;9.43;4.53;;;;;;;;;;5059617;28;20025;-58
2024/01/13 13:58:24;;;;;;;9.95;4.30;;;;;;;;;;5063202;28;20056;-58
2024/01/13 14:00:49;;;;;;;9.40;3.93;;;;;;;;;;5064345;28;20025;-60
2024/01/13 14:03:14;;;;;;;10.82;4.63;;;;;;;;;;5064544;28;20017;-58
2024/01/13 14:05:41;;;;;;;10.25;4.38;;;;;;;;;;5063706;28;20108;-60
2024/01/13 14:08:06;;;;;;;13.07;5.00;;;;;;;;;;5070285;28;20392;-59
2024/01/13 14:10:32;;;;;;;10.27;4.80;;;;;;;;;;5066492;28;20017;-60
2024/01/13 14:12:57;;;;;;;11.48;4.80;;;;;;;;;;5074306;28;20032;-59
2024/01/13 14:15:24;;;;;;;10.35;4.43;;;;;;;;;;5071531;28;20021;-59
2024/01/13 14:17:50;;;;;;;10.90;4.53;;;;;;;;;;5064928;28;20489;-58
2024/01/13 14:20:15;;;;;;;10.77;5.00;;;;;;;;;;5067261;28;20031;-59
2024/01/13 14:22:40;;;;;;;9.87;4.40;;;;;;;;;;5064834;28;20043;-59
2024/01/13 14:25:08;;;;;;;10.07;4.50;;;;;;;;;;5067572;28;20479;-60
2024/01/13 14:27:33;;;;;;;10.75;4.45;;;;;;;;;;5072430;28;20423;-59
2024/01/13 14:29:59;;;;;;;12.10;4.43;;;;;;;;;;5071578;28;20103;-59